Time,TemperatureF,DewpointF,PressureIn,WindDirection,WindDirectionDegrees,WindSpeedMPH,WindSpeedGustMPH,Humidity,HourlyPrecipIn,Conditions,Clouds,dailyrainin,SoftwareType,DateUTC
2013-12-22 00:22:00,68.0,64.0,29.81,SSW,205,11.0,-999.0,87,-99.99,,,-99.99,,2013-12-22 05:22:00,
2013-12-22 00:43:00,69.0,65.0,29.82,SSE,166,11.0,-999.0,87,-99.99,,,-99.99,,2013-12-22 05:43:00,
2013-12-22 00:53:00,67.0,64.0,29.82,SSW,197,6.0,-999.0,89,-99.99,,,-99.99,,2013-12-22 05:53:00,
2013-12-22 01:22:00,68.0,65.0,29.81,South,190,11.0,-999.0,89,-99.99,,,-99.99,,2013-12-22 06:22:00,
2013-12-22 01:52:00,68.0,64.0,29.79,SSW,193,10.0,-999.0,88,-99.99,,,-99.99,,2013-12-22 06:52:00,
2013-12-22 02:22:00,68.0,64.0,29.80,SSW,195,7.0,-999.0,86,-99.99,,,-99.99,,2013-12-22 07:22:00,
2013-12-22 02:42:00,69.0,64.0,29.80,SSW,197,11.0,-999.0,84,-99.99,,,-99.99,,2013-12-22 07:42:00,
2013-12-22 02:52:00,69.0,63.0,29.79,SSE,156,11.0,-999.0,82,-99.99,,,-99.99,,2013-12-22 07:52:00,
2013-12-22 03:22:00,70.0,64.0,29.82,SSW,194,11.0,-999.0,80,-99.99,,,-99.99,,2013-12-22 08:22:00,
2013-12-22 03:52:00,70.0,63.0,29.83,South,189,10.0,-999.0,78,-99.99,,,-99.99,,2013-12-22 08:52:00,
2013-12-22 04:22:00,71.0,63.0,29.83,SSW,198,9.0,-999.0,77,-99.99,,,-99.99,,2013-12-22 09:22:00,
2013-12-22 04:43:00,66.0,57.0,29.88,NW,313,5.0,-999.0,74,-99.99,,,-99.99,,2013-12-22 09:43:00,
2013-12-22 05:23:00,58.0,57.0,29.91,SSW,198,2.0,-999.0,95,-99.99,,,-99.99,,2013-12-22 10:23:00,
2013-12-22 05:54:00,57.0,56.0,29.89,South,177,3.0,-999.0,96,-99.99,,,-99.99,,2013-12-22 10:54:00,
2013-12-22 06:22:00,57.0,56.0,29.91,South,178,4.0,-999.0,95,-99.99,,,-99.99,,2013-12-22 11:22:00,
2013-12-22 06:52:00,57.0,56.0,29.90,SE,140,1.0,-999.0,96,-99.99,,,-99.99,,2013-12-22 11:52:00,
2013-12-22 07:22:00,57.0,56.0,29.92,South,179,4.0,-999.0,96,-99.99,,,-99.99,,2013-12-22 12:22:00,
2013-12-22 07:52:00,57.0,56.0,29.93,SSE,154,6.0,-999.0,96,-99.99,,,-99.99,,2013-12-22 12:52:00,
2013-12-22 08:22:00,57.0,56.0,29.94,South,180,4.0,-999.0,96,-99.99,,,-99.99,,2013-12-22 13:22:00,
2013-12-22 08:52:00,57.0,56.0,29.93,South,169,8.0,-999.0,95,-99.99,,,-99.99,,2013-12-22 13:52:00,
2013-12-22 09:22:00,56.0,54.0,29.93,SSE,157,6.0,-999.0,94,-99.99,,,-99.99,,2013-12-22 14:22:00,
2013-12-22 09:42:00,56.0,55.0,29.92,SE,138,4.0,-999.0,95,-99.99,,,-99.99,,2013-12-22 14:42:00,
2013-12-22 09:52:00,56.0,54.0,29.95,SSE,165,8.0,-999.0,94,-99.99,,,-99.99,,2013-12-22 14:52:00,
2013-12-22 10:22:00,56.0,55.0,29.96,SSW,207,2.0,-999.0,95,-99.99,,,-99.99,,2013-12-22 15:22:00,
2013-12-22 10:43:00,56.0,55.0,29.99,SW,221,0.0,-999.0,96,-99.99,,,-99.99,,2013-12-22 15:43:00,
2013-12-22 10:54:00,56.0,55.0,29.97,SW,221,0.0,-999.0,97,-99.99,,,-99.99,,2013-12-22 15:54:00,
2013-12-22 11:23:00,57.0,56.0,29.95,South,173,4.0,-999.0,96,-99.99,,,-99.99,,2013-12-22 16:23:00,
2013-12-22 11:53:00,57.0,56.0,29.93,SSE,148,2.0,-999.0,95,-99.99,,,-99.99,,2013-12-22 16:53:00,
2013-12-22 12:23:00,57.0,56.0,29.95,WSW,242,1.0,-999.0,96,-99.99,,,-99.99,,2013-12-22 17:23:00,
2013-12-22 12:42:00,57.0,56.0,29.93,SW,219,1.0,-999.0,96,-99.99,,,-99.99,,2013-12-22 17:42:00,
2013-12-22 12:53:00,57.0,56.0,29.95,SW,220,0.0,-999.0,97,-99.99,,,-99.99,,2013-12-22 17:53:00,
2013-12-22 13:22:00,58.0,57.0,29.92,WSW,241,0.0,-999.0,97,-99.99,,,-99.99,,2013-12-22 18:22:00,
2013-12-22 13:42:00,58.0,57.0,29.92,WSW,241,0.0,-999.0,96,-99.99,,,-99.99,,2013-12-22 18:42:00,
2013-12-22 13:52:00,58.0,57.0,29.91,WSW,241,1.0,-999.0,97,-99.99,,,-99.99,,2013-12-22 18:52:00,
2013-12-22 14:22:00,58.0,57.0,29.93,WSW,237,1.0,-999.0,97,-99.99,,,-99.99,,2013-12-22 19:22:00,
2013-12-22 14:42:00,58.0,57.0,29.93,WSW,255,3.0,-999.0,95,-99.99,,,-99.99,,2013-12-22 19:42:00,
2013-12-22 14:52:00,59.0,58.0,29.93,SW,225,3.0,-999.0,95,-99.99,,,-99.99,,2013-12-22 19:52:00,
2013-12-22 15:22:00,58.0,57.0,29.94,SSW,212,3.0,-999.0,96,-99.99,,,-99.99,,2013-12-22 20:22:00,
2013-12-22 15:53:00,58.0,57.0,29.94,WSW,257,2.0,-999.0,95,-99.99,,,-99.99,,2013-12-22 20:53:00,
2013-12-22 16:22:00,57.0,56.0,29.94,WSW,251,2.0,-999.0,95,-99.99,,,-99.99,,2013-12-22 21:22:00,
2013-12-22 16:43:00,57.0,56.0,29.95,SSW,213,1.0,-999.0,95,-99.99,,,-99.99,,2013-12-22 21:43:00,
2013-12-22 16:53:00,57.0,56.0,29.96,SW,234,2.0,-999.0,96,-99.99,,,-99.99,,2013-12-22 21:53:00,
2013-12-22 17:23:00,57.0,56.0,29.97,SSW,212,1.0,-999.0,96,-99.99,,,-99.99,,2013-12-22 22:23:00,
2013-12-22 17:43:00,57.0,56.0,29.97,WSW,238,2.0,-999.0,96,-99.99,,,-99.99,,2013-12-22 22:43:00,
2013-12-22 17:53:00,57.0,56.0,29.96,SSW,207,1.0,-999.0,96,-99.99,,,-99.99,,2013-12-22 22:53:00,
2013-12-22 18:22:00,57.0,56.0,29.98,WSW,238,1.0,-999.0,96,-99.99,,,-99.99,,2013-12-22 23:22:00,
2013-12-22 18:42:00,56.0,55.0,29.98,WSW,243,1.0,-999.0,96,-99.99,,,-99.99,,2013-12-22 23:42:00,
2013-12-22 18:53:00,56.0,55.0,29.99,West,276,1.0,-999.0,96,-99.99,,,-99.99,,2013-12-22 23:53:00,
2013-12-22 19:22:00,56.0,55.0,30.00,WSW,250,2.0,-999.0,95,-99.99,,,-99.99,,2013-12-23 00:22:00,
2013-12-22 19:52:00,55.0,54.0,30.00,SW,223,1.0,-999.0,95,-99.99,,,-99.99,,2013-12-23 00:52:00,
2013-12-22 20:22:00,55.0,54.0,30.00,SW,229,0.0,-999.0,96,-99.99,,,-99.99,,2013-12-23 01:22:00,
2013-12-22 20:42:00,55.0,54.0,30.00,WSW,243,1.0,-999.0,95,-99.99,,,-99.99,,2013-12-23 01:42:00,
2013-12-22 20:53:00,55.0,54.0,30.00,West,265,2.0,-999.0,95,-99.99,,,-99.99,,2013-12-23 01:53:00,
2013-12-22 21:22:00,55.0,54.0,30.02,WSW,257,1.0,-999.0,96,-99.99,,,-99.99,,2013-12-23 02:22:00,
2013-12-22 21:52:00,56.0,55.0,30.02,South,180,4.0,-999.0,95,-99.99,,,-99.99,,2013-12-23 02:52:00,
2013-12-22 22:22:00,55.0,54.0,30.03,SW,215,1.0,-999.0,96,-99.99,,,-99.99,,2013-12-23 03:22:00,
2013-12-22 22:43:00,55.0,54.0,30.04,West,267,1.0,-999.0,97,-99.99,,,-99.99,,2013-12-23 03:43:00,
2013-12-22 22:54:00,55.0,54.0,30.03,WSW,251,1.0,-999.0,97,-99.99,,,-99.99,,2013-12-23 03:54:00,
2013-12-22 23:23:00,55.0,54.0,30.05,SSW,196,0.0,-999.0,97,-99.99,,,-99.99,,2013-12-23 04:23:00,
2013-12-22 23:53:00,54.0,53.0,30.04,SSW,210,0.0,-999.0,97,-99.99,,,-99.99,,2013-12-23 04:53:00,